sensor_id;sensor_type;location;lat;lon;timestamp;P1;durP1;ratioP1;P2;durP2;ratioP2
24090;SDS011;12272;52.426;17.100;2023-08-07T00:02:50;4.27;;;0.80;;
24090;SDS011;12272;52.426;17.100;2023-08-07T00:07:52;4.13;;;1.53;;
24090;SDS011;12272;52.426;17.100;2023-08-07T00:12:55;1.90;;;1.03;;
24090;SDS011;12272;52.426;17.100;2023-08-07T00:17:57;0.67;;;0.60;;
24090;SDS011;12272;52.426;17.100;2023-08-07T00:23:00;1.20;;;1.10;;
24090;SDS011;12272;52.426;17.100;2023-08-07T00:28:02;1.57;;;1.17;;
24090;SDS011;12272;52.426;17.100;2023-08-07T00:33:05;1.43;;;0.80;;
24090;SDS011;12272;52.426;17.100;2023-08-07T00:38:08;1.40;;;1.07;;
24090;SDS011;12272;52.426;17.100;2023-08-07T00:43:11;3.13;;;0.97;;
24090;SDS011;12272;52.426;17.100;2023-08-07T00:48:14;1.10;;;1.00;;
24090;SDS011;12272;52.426;17.100;2023-08-07T00:53:18;1.93;;;1.03;;
24090;SDS011;12272;52.426;17.100;2023-08-07T00:58:21;1.23;;;0.70;;
24090;SDS011;12272;52.426;17.100;2023-08-07T01:03:23;1.67;;;1.10;;
24090;SDS011;12272;52.426;17.100;2023-08-07T01:08:26;1.57;;;1.00;;
24090;SDS011;12272;52.426;17.100;2023-08-07T01:18:44;1.57;;;1.33;;
24090;SDS011;12272;52.426;17.100;2023-08-07T01:23:48;1.20;;;1.00;;
24090;SDS011;12272;52.426;17.100;2023-08-07T01:29:06;0.80;;;0.80;;
24090;SDS011;12272;52.426;17.100;2023-08-07T01:34:12;1.03;;;0.93;;
24090;SDS011;12272;52.426;17.100;2023-08-07T01:39:20;1.10;;;1.00;;
24090;SDS011;12272;52.426;17.100;2023-08-07T01:44:24;2.10;;;1.20;;
24090;SDS011;12272;52.426;17.100;2023-08-07T01:49:26;3.37;;;1.30;;
24090;SDS011;12272;52.426;17.100;2023-08-07T01:54:29;3.83;;;1.07;;
24090;SDS011;12272;52.426;17.100;2023-08-07T01:59:31;1.48;;;1.20;;
24090;SDS011;12272;52.426;17.100;2023-08-07T02:04:34;1.67;;;1.02;;
24090;SDS011;12272;52.426;17.100;2023-08-07T02:09:36;1.37;;;1.07;;
24090;SDS011;12272;52.426;17.100;2023-08-07T02:14:39;1.40;;;1.00;;
24090;SDS011;12272;52.426;17.100;2023-08-07T02:19:41;0.63;;;0.60;;
24090;SDS011;12272;52.426;17.100;2023-08-07T02:24:44;0.70;;;0.60;;
24090;SDS011;12272;52.426;17.100;2023-08-07T02:29:47;1.60;;;1.00;;
24090;SDS011;12272;52.426;17.100;2023-08-07T02:34:49;1.40;;;1.17;;
24090;SDS011;12272;52.426;17.100;2023-08-07T02:39:52;3.17;;;1.30;;
24090;SDS011;12272;52.426;17.100;2023-08-07T02:44:55;0.83;;;0.60;;
24090;SDS011;12272;52.426;17.100;2023-08-07T02:49:58;2.90;;;1.10;;
24090;SDS011;12272;52.426;17.100;2023-08-07T02:55:01;3.07;;;1.40;;
24090;SDS011;12272;52.426;17.100;2023-08-07T03:00:04;2.77;;;1.10;;
24090;SDS011;12272;52.426;17.100;2023-08-07T03:05:08;5.17;;;1.50;;
24090;SDS011;12272;52.426;17.100;2023-08-07T03:10:11;2.07;;;1.37;;
24090;SDS011;12272;52.426;17.100;2023-08-07T03:15:14;1.50;;;0.87;;
24090;SDS011;12272;52.426;17.100;2023-08-07T03:20:16;1.80;;;1.13;;
24090;SDS011;12272;52.426;17.100;2023-08-07T03:25:19;1.43;;;1.10;;
24090;SDS011;12272;52.426;17.100;2023-08-07T03:30:22;3.92;;;1.30;;
24090;SDS011;12272;52.426;17.100;2023-08-07T03:35:24;4.82;;;1.13;;
24090;SDS011;12272;52.426;17.100;2023-08-07T03:40:27;2.83;;;1.50;;
24090;SDS011;12272;52.426;17.100;2023-08-07T03:45:30;1.30;;;0.82;;
24090;SDS011;12272;52.426;17.100;2023-08-07T03:50:33;2.13;;;0.90;;
24090;SDS011;12272;52.426;17.100;2023-08-07T03:55:40;4.60;;;1.43;;
24090;SDS011;12272;52.426;17.100;2023-08-07T04:00:44;2.70;;;1.30;;
24090;SDS011;12272;52.426;17.100;2023-08-07T04:05:46;3.35;;;1.20;;
24090;SDS011;12272;52.426;17.100;2023-08-07T04:11:05;2.07;;;1.30;;
24090;SDS011;12272;52.426;17.100;2023-08-07T04:16:09;1.60;;;1.23;;
24090;SDS011;12272;52.426;17.100;2023-08-07T04:21:12;1.30;;;1.10;;
24090;SDS011;12272;52.426;17.100;2023-08-07T04:26:14;0.70;;;0.50;;
24090;SDS011;12272;52.426;17.100;2023-08-07T04:31:17;2.05;;;0.82;;
24090;SDS011;12272;52.426;17.100;2023-08-07T04:36:20;2.00;;;1.13;;
24090;SDS011;12272;52.426;17.100;2023-08-07T04:41:22;1.27;;;0.90;;
24090;SDS011;12272;52.426;17.100;2023-08-07T04:46:26;4.85;;;1.20;;
24090;SDS011;12272;52.426;17.100;2023-08-07T04:51:29;1.40;;;1.02;;
24090;SDS011;12272;52.426;17.100;2023-08-07T04:56:33;1.80;;;1.30;;
24090;SDS011;12272;52.426;17.100;2023-08-07T05:01:35;2.30;;;1.43;;
24090;SDS011;12272;52.426;17.100;2023-08-07T05:12:06;1.47;;;0.90;;
24090;SDS011;12272;52.426;17.100;2023-08-07T05:17:09;3.87;;;0.93;;
24090;SDS011;12272;52.426;17.100;2023-08-07T05:22:12;1.30;;;0.95;;
24090;SDS011;12272;52.426;17.100;2023-08-07T05:27:14;1.17;;;0.98;;
24090;SDS011;12272;52.426;17.100;2023-08-07T05:32:17;2.90;;;1.30;;
24090;SDS011;12272;52.426;17.100;2023-08-07T05:37:19;2.38;;;0.98;;
24090;SDS011;12272;52.426;17.100;2023-08-07T05:42:22;1.35;;;0.80;;
24090;SDS011;12272;52.426;17.100;2023-08-07T05:47:24;5.07;;;0.93;;
24090;SDS011;12272;52.426;17.100;2023-08-07T05:52:27;1.88;;;0.73;;
24090;SDS011;12272;52.426;17.100;2023-08-07T05:57:29;1.48;;;1.15;;
24090;SDS011;12272;52.426;17.100;2023-08-07T06:02:32;2.95;;;1.65;;
24090;SDS011;12272;52.426;17.100;2023-08-07T06:07:35;1.38;;;1.08;;
24090;SDS011;12272;52.426;17.100;2023-08-07T06:12:37;1.30;;;0.85;;
24090;SDS011;12272;52.426;17.100;2023-08-07T06:17:40;1.90;;;0.95;;
24090;SDS011;12272;52.426;17.100;2023-08-07T06:22:43;2.08;;;0.80;;
24090;SDS011;12272;52.426;17.100;2023-08-07T06:27:45;1.40;;;0.88;;
24090;SDS011;12272;52.426;17.100;2023-08-07T06:32:48;0.98;;;0.77;;
24090;SDS011;12272;52.426;17.100;2023-08-07T06:37:50;1.23;;;0.98;;
24090;SDS011;12272;52.426;17.100;2023-08-07T06:42:53;1.17;;;1.05;;
24090;SDS011;12272;52.426;17.100;2023-08-07T06:47:56;1.75;;;1.23;;
24090;SDS011;12272;52.426;17.100;2023-08-07T06:52:58;2.65;;;0.70;;
24090;SDS011;12272;52.426;17.100;2023-08-07T06:58:01;2.45;;;1.23;;
24090;SDS011;12272;52.426;17.100;2023-08-07T07:03:04;1.02;;;0.63;;
24090;SDS011;12272;52.426;17.100;2023-08-07T07:08:07;1.20;;;0.95;;
24090;SDS011;12272;52.426;17.100;2023-08-07T07:13:09;1.73;;;1.15;;
24090;SDS011;12272;52.426;17.100;2023-08-07T07:18:11;0.82;;;0.43;;
24090;SDS011;12272;52.426;17.100;2023-08-07T07:23:14;3.25;;;1.02;;
24090;SDS011;12272;52.426;17.100;2023-08-07T07:28:17;1.92;;;0.80;;
24090;SDS011;12272;52.426;17.100;2023-08-07T07:33:19;1.23;;;1.00;;
24090;SDS011;12272;52.426;17.100;2023-08-07T07:38:22;1.20;;;0.90;;
24090;SDS011;12272;52.426;17.100;2023-08-07T07:43:24;2.63;;;1.45;;
24090;SDS011;12272;52.426;17.100;2023-08-07T07:48:27;1.60;;;1.10;;
24090;SDS011;12272;52.426;17.100;2023-08-07T07:53:30;2.90;;;1.33;;
24090;SDS011;12272;52.426;17.100;2023-08-07T07:58:33;1.98;;;1.58;;
24090;SDS011;12272;52.426;17.100;2023-08-07T08:03:35;1.02;;;0.88;;
24090;SDS011;12272;52.426;17.100;2023-08-07T08:08:38;1.73;;;1.08;;
24090;SDS011;12272;52.426;17.100;2023-08-07T08:13:40;6.13;;;1.70;;
24090;SDS011;12272;52.426;17.100;2023-08-07T08:18:43;2.00;;;1.70;;
24090;SDS011;12272;52.426;17.100;2023-08-07T08:23:46;1.58;;;1.10;;
24090;SDS011;12272;52.426;17.100;2023-08-07T08:28:48;2.05;;;1.40;;
24090;SDS011;12272;52.426;17.100;2023-08-07T08:33:51;1.65;;;1.55;;
24090;SDS011;12272;52.426;17.100;2023-08-07T08:38:53;1.48;;;1.13;;
24090;SDS011;12272;52.426;17.100;2023-08-07T08:43:56;1.45;;;1.35;;
24090;SDS011;12272;52.426;17.100;2023-08-07T08:49:01;2.80;;;1.60;;
24090;SDS011;12272;52.426;17.100;2023-08-07T08:54:05;1.23;;;0.98;;
24090;SDS011;12272;52.426;17.100;2023-08-07T08:59:10;2.92;;;1.38;;
24090;SDS011;12272;52.426;17.100;2023-08-07T09:04:13;1.52;;;0.82;;
24090;SDS011;12272;52.426;17.100;2023-08-07T09:09:16;2.60;;;1.50;;
24090;SDS011;12272;52.426;17.100;2023-08-07T09:14:22;2.03;;;1.63;;
24090;SDS011;12272;52.426;17.100;2023-08-07T09:19:31;1.65;;;1.33;;
24090;SDS011;12272;52.426;17.100;2023-08-07T09:24:34;2.75;;;1.15;;
24090;SDS011;12272;52.426;17.100;2023-08-07T09:29:39;3.03;;;1.60;;
24090;SDS011;12272;52.426;17.100;2023-08-07T09:34:42;2.35;;;1.90;;
24090;SDS011;12272;52.426;17.100;2023-08-07T09:39:45;1.80;;;1.67;;
24090;SDS011;12272;52.426;17.100;2023-08-07T09:44:48;3.30;;;1.92;;
24090;SDS011;12272;52.426;17.100;2023-08-07T09:49:51;1.90;;;1.30;;
24090;SDS011;12272;52.426;17.100;2023-08-07T09:54:57;2.03;;;1.60;;
24090;SDS011;12272;52.426;17.100;2023-08-07T10:00:00;4.88;;;2.13;;
24090;SDS011;12272;52.426;17.100;2023-08-07T10:05:13;4.70;;;1.88;;
24090;SDS011;12272;52.426;17.100;2023-08-07T10:10:15;1.42;;;1.20;;
24090;SDS011;12272;52.426;17.100;2023-08-07T10:15:19;4.18;;;1.27;;
24090;SDS011;12272;52.426;17.100;2023-08-07T10:20:23;1.88;;;1.10;;
24090;SDS011;12272;52.426;17.100;2023-08-07T10:25:28;1.02;;;0.80;;
24090;SDS011;12272;52.426;17.100;2023-08-07T10:30:31;1.75;;;1.17;;
24090;SDS011;12272;52.426;17.100;2023-08-07T10:35:35;5.28;;;1.73;;
24090;SDS011;12272;52.426;17.100;2023-08-07T10:46:07;2.42;;;1.70;;
24090;SDS011;12272;52.426;17.100;2023-08-07T10:51:16;1.20;;;0.88;;
24090;SDS011;12272;52.426;17.100;2023-08-07T10:56:30;1.75;;;1.08;;
24090;SDS011;12272;52.426;17.100;2023-08-07T11:06:42;3.00;;;1.23;;
24090;SDS011;12272;52.426;17.100;2023-08-07T11:11:47;1.42;;;1.10;;
24090;SDS011;12272;52.426;17.100;2023-08-07T11:16:50;2.08;;;1.55;;
24090;SDS011;12272;52.426;17.100;2023-08-07T11:21:54;3.85;;;1.50;;
24090;SDS011;12272;52.426;17.100;2023-08-07T11:26:59;2.10;;;1.48;;
24090;SDS011;12272;52.426;17.100;2023-08-07T11:32:05;5.32;;;1.73;;
24090;SDS011;12272;52.426;17.100;2023-08-07T11:37:15;3.28;;;1.70;;
24090;SDS011;12272;52.426;17.100;2023-08-07T11:42:21;1.77;;;1.35;;
24090;SDS011;12272;52.426;17.100;2023-08-07T11:47:24;2.47;;;1.50;;
24090;SDS011;12272;52.426;17.100;2023-08-07T11:52:26;4.90;;;1.20;;
24090;SDS011;12272;52.426;17.100;2023-08-07T11:57:29;2.95;;;1.88;;
24090;SDS011;12272;52.426;17.100;2023-08-07T12:02:34;3.08;;;2.08;;
24090;SDS011;12272;52.426;17.100;2023-08-07T12:07:38;1.42;;;1.20;;
24090;SDS011;12272;52.426;17.100;2023-08-07T12:12:40;2.63;;;1.20;;
24090;SDS011;12272;52.426;17.100;2023-08-07T12:17:45;1.02;;;0.93;;
24090;SDS011;12272;52.426;17.100;2023-08-07T12:22:48;2.03;;;1.10;;
24090;SDS011;12272;52.426;17.100;2023-08-07T12:27:51;1.75;;;1.38;;
24090;SDS011;12272;52.426;17.100;2023-08-07T12:32:54;1.52;;;1.20;;
24090;SDS011;12272;52.426;17.100;2023-08-07T12:37:57;1.77;;;1.63;;
24090;SDS011;12272;52.426;17.100;2023-08-07T12:43:00;1.67;;;1.38;;
24090;SDS011;12272;52.426;17.100;2023-08-07T12:48:02;4.03;;;1.17;;
24090;SDS011;12272;52.426;17.100;2023-08-07T12:53:06;2.22;;;1.67;;
24090;SDS011;12272;52.426;17.100;2023-08-07T12:58:09;1.40;;;1.20;;
24090;SDS011;12272;52.426;17.100;2023-08-07T13:03:12;2.15;;;1.15;;
24090;SDS011;12272;52.426;17.100;2023-08-07T13:08:15;3.13;;;1.60;;
24090;SDS011;12272;52.426;17.100;2023-08-07T13:13:18;2.53;;;1.65;;
24090;SDS011;12272;52.426;17.100;2023-08-07T13:18:20;1.73;;;1.63;;
24090;SDS011;12272;52.426;17.100;2023-08-07T13:23:23;2.03;;;1.70;;
24090;SDS011;12272;52.426;17.100;2023-08-07T13:28:25;1.75;;;1.65;;
24090;SDS011;12272;52.426;17.100;2023-08-07T13:33:28;1.60;;;1.27;;
24090;SDS011;12272;52.426;17.100;2023-08-07T13:38:30;2.53;;;1.85;;
24090;SDS011;12272;52.426;17.100;2023-08-07T13:43:33;2.17;;;1.48;;
24090;SDS011;12272;52.426;17.100;2023-08-07T13:48:35;2.30;;;1.75;;
24090;SDS011;12272;52.426;17.100;2023-08-07T13:53:39;1.90;;;1.70;;
24090;SDS011;12272;52.426;17.100;2023-08-07T13:58:43;1.83;;;1.58;;
24090;SDS011;12272;52.426;17.100;2023-08-07T14:03:46;2.08;;;1.42;;
24090;SDS011;12272;52.426;17.100;2023-08-07T14:08:48;1.83;;;1.52;;
24090;SDS011;12272;52.426;17.100;2023-08-07T14:13:51;1.98;;;1.77;;
24090;SDS011;12272;52.426;17.100;2023-08-07T14:18:53;3.38;;;1.52;;
24090;SDS011;12272;52.426;17.100;2023-08-07T14:23:56;3.92;;;1.95;;
24090;SDS011;12272;52.426;17.100;2023-08-07T14:28:59;1.88;;;1.55;;
24090;SDS011;12272;52.426;17.100;2023-08-07T14:34:01;2.15;;;1.45;;
24090;SDS011;12272;52.426;17.100;2023-08-07T14:39:04;2.20;;;1.33;;
24090;SDS011;12272;52.426;17.100;2023-08-07T14:44:07;2.05;;;1.60;;
24090;SDS011;12272;52.426;17.100;2023-08-07T14:49:09;1.90;;;1.27;;
24090;SDS011;12272;52.426;17.100;2023-08-07T14:54:12;3.28;;;1.83;;
24090;SDS011;12272;52.426;17.100;2023-08-07T14:59:15;3.25;;;1.70;;
24090;SDS011;12272;52.426;17.100;2023-08-07T15:04:18;1.63;;;1.50;;
24090;SDS011;12272;52.426;17.100;2023-08-07T15:09:20;3.05;;;1.80;;
24090;SDS011;12272;52.426;17.100;2023-08-07T15:14:23;1.85;;;1.63;;
24090;SDS011;12272;52.426;17.100;2023-08-07T15:19:25;1.50;;;1.25;;
24090;SDS011;12272;52.426;17.100;2023-08-07T15:24:28;2.40;;;0.95;;
24090;SDS011;12272;52.426;17.100;2023-08-07T15:29:31;1.60;;;1.38;;
24090;SDS011;12272;52.426;17.100;2023-08-07T15:34:33;2.80;;;1.55;;
24090;SDS011;12272;52.426;17.100;2023-08-07T15:39:36;2.67;;;1.45;;
24090;SDS011;12272;52.426;17.100;2023-08-07T15:44:38;2.35;;;1.35;;
24090;SDS011;12272;52.426;17.100;2023-08-07T15:49:41;2.72;;;1.35;;
24090;SDS011;12272;52.426;17.100;2023-08-07T15:54:46;2.47;;;1.55;;
24090;SDS011;12272;52.426;17.100;2023-08-07T15:59:49;9.55;;;2.90;;
24090;SDS011;12272;52.426;17.100;2023-08-07T16:04:51;2.97;;;1.90;;
24090;SDS011;12272;52.426;17.100;2023-08-07T16:09:54;1.63;;;1.05;;
24090;SDS011;12272;52.426;17.100;2023-08-07T16:14:57;3.75;;;1.75;;
24090;SDS011;12272;52.426;17.100;2023-08-07T16:20:01;1.80;;;1.30;;
24090;SDS011;12272;52.426;17.100;2023-08-07T16:25:03;5.65;;;4.32;;
24090;SDS011;12272;52.426;17.100;2023-08-07T16:30:06;54.42;;;29.17;;
24090;SDS011;12272;52.426;17.100;2023-08-07T16:35:09;3.42;;;2.13;;
24090;SDS011;12272;52.426;17.100;2023-08-07T16:40:11;13.75;;;6.25;;
24090;SDS011;12272;52.426;17.100;2023-08-07T16:45:14;20.08;;;11.68;;
24090;SDS011;12272;52.426;17.100;2023-08-07T16:50:17;97.80;;;44.65;;
24090;SDS011;12272;52.426;17.100;2023-08-07T16:55:19;26.45;;;14.95;;
24090;SDS011;12272;52.426;17.100;2023-08-07T17:00:22;63.95;;;32.17;;
24090;SDS011;12272;52.426;17.100;2023-08-07T17:05:25;31.77;;;17.38;;
24090;SDS011;12272;52.426;17.100;2023-08-07T17:10:28;40.83;;;21.30;;
24090;SDS011;12272;52.426;17.100;2023-08-07T17:15:35;41.33;;;22.63;;
24090;SDS011;12272;52.426;17.100;2023-08-07T17:20:39;60.88;;;26.42;;
24090;SDS011;12272;52.426;17.100;2023-08-07T17:25:41;71.97;;;33.83;;
24090;SDS011;12272;52.426;17.100;2023-08-07T17:30:44;49.17;;;27.98;;
24090;SDS011;12272;52.426;17.100;2023-08-07T17:35:46;62.88;;;31.75;;
24090;SDS011;12272;52.426;17.100;2023-08-07T17:40:49;53.20;;;27.75;;
24090;SDS011;12272;52.426;17.100;2023-08-07T17:45:51;63.47;;;30.80;;
24090;SDS011;12272;52.426;17.100;2023-08-07T17:50:54;52.60;;;25.98;;
24090;SDS011;12272;52.426;17.100;2023-08-07T17:55:56;51.90;;;25.55;;
24090;SDS011;12272;52.426;17.100;2023-08-07T18:01:01;49.95;;;27.35;;
24090;SDS011;12272;52.426;17.100;2023-08-07T18:06:04;38.28;;;21.95;;
24090;SDS011;12272;52.426;17.100;2023-08-07T18:11:07;46.70;;;23.38;;
24090;SDS011;12272;52.426;17.100;2023-08-07T18:16:09;43.17;;;23.85;;
24090;SDS011;12272;52.426;17.100;2023-08-07T18:21:12;46.95;;;24.73;;
24090;SDS011;12272;52.426;17.100;2023-08-07T18:26:15;23.77;;;12.23;;
24090;SDS011;12272;52.426;17.100;2023-08-07T18:31:17;40.17;;;22.50;;
24090;SDS011;12272;52.426;17.100;2023-08-07T18:36:20;44.65;;;22.77;;
24090;SDS011;12272;52.426;17.100;2023-08-07T18:41:23;42.45;;;24.17;;
24090;SDS011;12272;52.426;17.100;2023-08-07T18:46:26;40.42;;;20.65;;
24090;SDS011;12272;52.426;17.100;2023-08-07T18:51:28;31.45;;;17.38;;
24090;SDS011;12272;52.426;17.100;2023-08-07T18:56:31;39.40;;;19.83;;
24090;SDS011;12272;52.426;17.100;2023-08-07T19:01:34;40.50;;;22.08;;
24090;SDS011;12272;52.426;17.100;2023-08-07T19:06:37;29.45;;;15.88;;
24090;SDS011;12272;52.426;17.100;2023-08-07T19:11:40;37.85;;;20.83;;
24090;SDS011;12272;52.426;17.100;2023-08-07T19:16:43;30.55;;;13.60;;
24090;SDS011;12272;52.426;17.100;2023-08-07T19:21:47;32.55;;;18.60;;
24090;SDS011;12272;52.426;17.100;2023-08-07T19:26:49;21.52;;;11.13;;
24090;SDS011;12272;52.426;17.100;2023-08-07T19:31:52;27.08;;;14.10;;
24090;SDS011;12272;52.426;17.100;2023-08-07T19:36:55;10.50;;;6.70;;
24090;SDS011;12272;52.426;17.100;2023-08-07T19:41:58;14.45;;;9.75;;
24090;SDS011;12272;52.426;17.100;2023-08-07T19:47:01;14.73;;;9.00;;
24090;SDS011;12272;52.426;17.100;2023-08-07T19:52:03;22.38;;;13.27;;
24090;SDS011;12272;52.426;17.100;2023-08-07T19:57:06;22.10;;;11.93;;
24090;SDS011;12272;52.426;17.100;2023-08-07T20:02:09;11.88;;;7.18;;
24090;SDS011;12272;52.426;17.100;2023-08-07T20:07:11;11.80;;;7.20;;
24090;SDS011;12272;52.426;17.100;2023-08-07T20:12:14;19.02;;;10.15;;
24090;SDS011;12272;52.426;17.100;2023-08-07T20:17:18;15.98;;;9.10;;
24090;SDS011;12272;52.426;17.100;2023-08-07T20:22:21;11.20;;;7.00;;
24090;SDS011;12272;52.426;17.100;2023-08-07T20:27:23;12.95;;;7.90;;
24090;SDS011;12272;52.426;17.100;2023-08-07T20:32:26;16.10;;;8.60;;
24090;SDS011;12272;52.426;17.100;2023-08-07T20:37:28;11.40;;;7.45;;
24090;SDS011;12272;52.426;17.100;2023-08-07T20:42:31;12.55;;;7.45;;
24090;SDS011;12272;52.426;17.100;2023-08-07T20:47:34;13.45;;;8.45;;
24090;SDS011;12272;52.426;17.100;2023-08-07T20:52:36;16.15;;;9.32;;
24090;SDS011;12272;52.426;17.100;2023-08-07T20:57:39;9.73;;;6.43;;
24090;SDS011;12272;52.426;17.100;2023-08-07T21:02:41;17.83;;;8.50;;
24090;SDS011;12272;52.426;17.100;2023-08-07T21:07:44;17.40;;;9.00;;
24090;SDS011;12272;52.426;17.100;2023-08-07T21:12:47;15.50;;;7.90;;
24090;SDS011;12272;52.426;17.100;2023-08-07T21:17:49;13.75;;;5.35;;
24090;SDS011;12272;52.426;17.100;2023-08-07T21:22:52;16.75;;;8.73;;
24090;SDS011;12272;52.426;17.100;2023-08-07T21:27:55;10.25;;;7.03;;
24090;SDS011;12272;52.426;17.100;2023-08-07T21:32:58;14.05;;;7.25;;
24090;SDS011;12272;52.426;17.100;2023-08-07T21:38:00;11.32;;;6.95;;
24090;SDS011;12272;52.426;17.100;2023-08-07T21:43:03;9.82;;;6.60;;
24090;SDS011;12272;52.426;17.100;2023-08-07T21:48:06;16.63;;;7.63;;
24090;SDS011;12272;52.426;17.100;2023-08-07T21:53:08;11.02;;;6.60;;
24090;SDS011;12272;52.426;17.100;2023-08-07T21:58:11;8.93;;;5.43;;
24090;SDS011;12272;52.426;17.100;2023-08-07T22:03:14;9.23;;;6.05;;
24090;SDS011;12272;52.426;17.100;2023-08-07T22:08:17;9.45;;;6.32;;
24090;SDS011;12272;52.426;17.100;2023-08-07T22:13:19;10.82;;;7.13;;
24090;SDS011;12272;52.426;17.100;2023-08-07T22:18:22;9.23;;;5.90;;
24090;SDS011;12272;52.426;17.100;2023-08-07T22:23:25;10.35;;;6.50;;
24090;SDS011;12272;52.426;17.100;2023-08-07T22:28:28;7.90;;;5.97;;
24090;SDS011;12272;52.426;17.100;2023-08-07T22:33:31;10.10;;;6.55;;
24090;SDS011;12272;52.426;17.100;2023-08-07T22:38:34;11.45;;;5.82;;
24090;SDS011;12272;52.426;17.100;2023-08-07T22:43:36;9.70;;;5.00;;
24090;SDS011;12272;52.426;17.100;2023-08-07T22:48:39;7.22;;;5.55;;
24090;SDS011;12272;52.426;17.100;2023-08-07T22:53:41;10.15;;;6.38;;
24090;SDS011;12272;52.426;17.100;2023-08-07T22:58:44;9.73;;;4.13;;
24090;SDS011;12272;52.426;17.100;2023-08-07T23:03:48;17.10;;;5.10;;
24090;SDS011;12272;52.426;17.100;2023-08-07T23:08:50;7.53;;;4.85;;
24090;SDS011;12272;52.426;17.100;2023-08-07T23:13:53;9.40;;;5.20;;
24090;SDS011;12272;52.426;17.100;2023-08-07T23:18:56;10.55;;;5.88;;
24090;SDS011;12272;52.426;17.100;2023-08-07T23:23:59;8.07;;;5.38;;
24090;SDS011;12272;52.426;17.100;2023-08-07T23:29:01;9.95;;;5.50;;
24090;SDS011;12272;52.426;17.100;2023-08-07T23:34:04;7.72;;;4.15;;
24090;SDS011;12272;52.426;17.100;2023-08-07T23:39:07;9.13;;;5.22;;
24090;SDS011;12272;52.426;17.100;2023-08-07T23:44:10;8.68;;;4.28;;
24090;SDS011;12272;52.426;17.100;2023-08-07T23:49:13;7.53;;;4.82;;
24090;SDS011;12272;52.426;17.100;2023-08-07T23:54:15;9.07;;;4.50;;
24090;SDS011;12272;52.426;17.100;2023-08-07T23:59:18;5.68;;;3.28;;
